sensor_id;sensor_type;location;lat;lon;timestamp;P1;durP1;ratioP1;P2;durP2;ratioP2
63801;SDS011;49949;43.060;25.624;2023-08-20T00:00:32;15.98;;;10.45;;
63801;SDS011;49949;43.060;25.624;2023-08-20T00:02:58;14.63;;;9.68;;
63801;SDS011;49949;43.060;25.624;2023-08-20T00:05:29;16.00;;;9.40;;
63801;SDS011;49949;43.060;25.624;2023-08-20T00:07:56;15.02;;;9.90;;
63801;SDS011;49949;43.060;25.624;2023-08-20T00:10:22;14.20;;;9.48;;
63801;SDS011;49949;43.060;25.624;2023-08-20T00:12:47;12.90;;;10.02;;
63801;SDS011;49949;43.060;25.624;2023-08-20T00:15:13;16.88;;;10.70;;
63801;SDS011;49949;43.060;25.624;2023-08-20T00:17:39;17.45;;;10.55;;
63801;SDS011;49949;43.060;25.624;2023-08-20T00:20:07;15.68;;;10.05;;
63801;SDS011;49949;43.060;25.624;2023-08-20T00:22:37;20.17;;;10.88;;
63801;SDS011;49949;43.060;25.624;2023-08-20T00:25:04;16.27;;;9.50;;
63801;SDS011;49949;43.060;25.624;2023-08-20T00:27:31;13.13;;;9.48;;
63801;SDS011;49949;43.060;25.624;2023-08-20T00:29:57;15.63;;;10.57;;
63801;SDS011;49949;43.060;25.624;2023-08-20T00:32:22;17.27;;;10.80;;
63801;SDS011;49949;43.060;25.624;2023-08-20T00:34:48;14.23;;;10.48;;
63801;SDS011;49949;43.060;25.624;2023-08-20T00:37:14;15.93;;;9.30;;
63801;SDS011;49949;43.060;25.624;2023-08-20T00:39:40;17.15;;;10.63;;
63801;SDS011;49949;43.060;25.624;2023-08-20T00:42:05;15.85;;;10.07;;
63801;SDS011;49949;43.060;25.624;2023-08-20T00:44:32;15.50;;;10.15;;
63801;SDS011;49949;43.060;25.624;2023-08-20T00:46:59;18.90;;;10.25;;
63801;SDS011;49949;43.060;25.624;2023-08-20T00:49:29;15.10;;;10.25;;
63801;SDS011;49949;43.060;25.624;2023-08-20T00:51:55;15.52;;;10.07;;
63801;SDS011;49949;43.060;25.624;2023-08-20T00:54:22;15.57;;;9.35;;
63801;SDS011;49949;43.060;25.624;2023-08-20T00:56:48;19.00;;;10.15;;
63801;SDS011;49949;43.060;25.624;2023-08-20T00:59:15;14.77;;;9.65;;
63801;SDS011;49949;43.060;25.624;2023-08-20T01:01:42;14.95;;;10.20;;
63801;SDS011;49949;43.060;25.624;2023-08-20T01:04:08;17.20;;;11.65;;
63801;SDS011;49949;43.060;25.624;2023-08-20T01:12:16;14.80;;;10.98;;
63801;SDS011;49949;43.060;25.624;2023-08-20T01:14:43;15.52;;;9.95;;
63801;SDS011;49949;43.060;25.624;2023-08-20T01:17:08;18.90;;;12.15;;
63801;SDS011;49949;43.060;25.624;2023-08-20T01:19:34;23.98;;;13.32;;
63801;SDS011;49949;43.060;25.624;2023-08-20T01:22:05;18.92;;;12.25;;
63801;SDS011;49949;43.060;25.624;2023-08-20T01:30:47;16.95;;;9.82;;
63801;SDS011;49949;43.060;25.624;2023-08-20T01:33:13;16.60;;;10.15;;
63801;SDS011;49949;43.060;25.624;2023-08-20T01:35:40;16.27;;;10.73;;
63801;SDS011;49949;43.060;25.624;2023-08-20T01:38:06;17.50;;;11.30;;
63801;SDS011;49949;43.060;25.624;2023-08-20T01:40:32;21.83;;;12.23;;
63801;SDS011;49949;43.060;25.624;2023-08-20T01:42:58;19.35;;;11.70;;
63801;SDS011;49949;43.060;25.624;2023-08-20T01:45:24;16.90;;;11.05;;
63801;SDS011;49949;43.060;25.624;2023-08-20T01:47:51;18.23;;;10.90;;
63801;SDS011;49949;43.060;25.624;2023-08-20T01:50:17;14.18;;;9.77;;
63801;SDS011;49949;43.060;25.624;2023-08-20T01:52:43;13.27;;;9.73;;
63801;SDS011;49949;43.060;25.624;2023-08-20T01:55:10;13.13;;;10.20;;
63801;SDS011;49949;43.060;25.624;2023-08-20T01:57:36;14.55;;;9.65;;
63801;SDS011;49949;43.060;25.624;2023-08-20T02:00:02;22.02;;;8.82;;
63801;SDS011;49949;43.060;25.624;2023-08-20T02:02:30;18.67;;;9.60;;
63801;SDS011;49949;43.060;25.624;2023-08-20T02:04:56;25.08;;;10.70;;
63801;SDS011;49949;43.060;25.624;2023-08-20T02:07:21;19.33;;;9.98;;
63801;SDS011;49949;43.060;25.624;2023-08-20T02:09:47;17.13;;;10.55;;
63801;SDS011;49949;43.060;25.624;2023-08-20T02:12:13;22.05;;;10.65;;
63801;SDS011;49949;43.060;25.624;2023-08-20T02:14:39;18.27;;;9.68;;
63801;SDS011;49949;43.060;25.624;2023-08-20T02:17:05;18.70;;;9.88;;
63801;SDS011;49949;43.060;25.624;2023-08-20T02:19:31;18.27;;;10.55;;
63801;SDS011;49949;43.060;25.624;2023-08-20T02:21:57;15.77;;;9.82;;
63801;SDS011;49949;43.060;25.624;2023-08-20T02:24:23;18.45;;;9.82;;
63801;SDS011;49949;43.060;25.624;2023-08-20T02:26:48;13.75;;;9.35;;
63801;SDS011;49949;43.060;25.624;2023-08-20T02:29:14;12.80;;;9.88;;
63801;SDS011;49949;43.060;25.624;2023-08-20T02:31:40;13.05;;;9.55;;
63801;SDS011;49949;43.060;25.624;2023-08-20T02:34:06;21.60;;;11.60;;
63801;SDS011;49949;43.060;25.624;2023-08-20T02:36:32;20.27;;;10.68;;
63801;SDS011;49949;43.060;25.624;2023-08-20T02:38:57;18.70;;;11.15;;
63801;SDS011;49949;43.060;25.624;2023-08-20T02:41:23;16.60;;;10.00;;
63801;SDS011;49949;43.060;25.624;2023-08-20T02:43:48;14.45;;;9.82;;
63801;SDS011;49949;43.060;25.624;2023-08-20T02:46:14;16.85;;;11.55;;
63801;SDS011;49949;43.060;25.624;2023-08-20T02:48:40;21.65;;;11.30;;
63801;SDS011;49949;43.060;25.624;2023-08-20T02:51:06;18.85;;;10.95;;
63801;SDS011;49949;43.060;25.624;2023-08-20T02:53:31;20.38;;;11.52;;
63801;SDS011;49949;43.060;25.624;2023-08-20T02:55:57;21.17;;;10.80;;
63801;SDS011;49949;43.060;25.624;2023-08-20T02:58:23;20.00;;;11.13;;
63801;SDS011;49949;43.060;25.624;2023-08-20T03:00:49;23.23;;;11.48;;
63801;SDS011;49949;43.060;25.624;2023-08-20T03:03:15;17.98;;;11.07;;
63801;SDS011;49949;43.060;25.624;2023-08-20T03:05:41;21.25;;;11.13;;
63801;SDS011;49949;43.060;25.624;2023-08-20T03:08:07;18.15;;;10.43;;
63801;SDS011;49949;43.060;25.624;2023-08-20T03:10:33;21.75;;;11.27;;
63801;SDS011;49949;43.060;25.624;2023-08-20T03:13:00;24.42;;;12.10;;
63801;SDS011;49949;43.060;25.624;2023-08-20T03:15:27;55.75;;;33.15;;
63801;SDS011;49949;43.060;25.624;2023-08-20T03:17:56;25.08;;;12.20;;
63801;SDS011;49949;43.060;25.624;2023-08-20T03:20:21;17.85;;;10.40;;
63801;SDS011;49949;43.060;25.624;2023-08-20T03:22:47;20.48;;;10.82;;
63801;SDS011;49949;43.060;25.624;2023-08-20T03:25:14;18.20;;;10.88;;
63801;SDS011;49949;43.060;25.624;2023-08-20T03:27:41;19.77;;;10.60;;
63801;SDS011;49949;43.060;25.624;2023-08-20T03:30:07;21.05;;;11.23;;
63801;SDS011;49949;43.060;25.624;2023-08-20T03:32:33;30.25;;;11.25;;
63801;SDS011;49949;43.060;25.624;2023-08-20T03:34:58;14.07;;;9.63;;
63801;SDS011;49949;43.060;25.624;2023-08-20T03:37:25;14.80;;;9.63;;
63801;SDS011;49949;43.060;25.624;2023-08-20T03:39:51;15.27;;;10.00;;
63801;SDS011;49949;43.060;25.624;2023-08-20T03:42:17;15.35;;;9.70;;
63801;SDS011;49949;43.060;25.624;2023-08-20T03:44:43;22.08;;;9.38;;
63801;SDS011;49949;43.060;25.624;2023-08-20T03:47:09;14.07;;;9.48;;
63801;SDS011;49949;43.060;25.624;2023-08-20T03:49:34;18.52;;;9.32;;
63801;SDS011;49949;43.060;25.624;2023-08-20T03:52:00;17.40;;;9.32;;
63801;SDS011;49949;43.060;25.624;2023-08-20T03:54:27;14.48;;;9.15;;
63801;SDS011;49949;43.060;25.624;2023-08-20T03:56:54;17.58;;;9.95;;
63801;SDS011;49949;43.060;25.624;2023-08-20T03:59:20;20.77;;;9.95;;
63801;SDS011;49949;43.060;25.624;2023-08-20T04:01:46;17.88;;;9.70;;
63801;SDS011;49949;43.060;25.624;2023-08-20T04:04:11;16.20;;;9.10;;
63801;SDS011;49949;43.060;25.624;2023-08-20T04:06:37;17.85;;;9.63;;
63801;SDS011;49949;43.060;25.624;2023-08-20T04:09:03;22.08;;;9.90;;
63801;SDS011;49949;43.060;25.624;2023-08-20T04:11:29;19.80;;;9.23;;
63801;SDS011;49949;43.060;25.624;2023-08-20T04:13:54;22.35;;;10.02;;
63801;SDS011;49949;43.060;25.624;2023-08-20T04:16:20;20.73;;;9.60;;
63801;SDS011;49949;43.060;25.624;2023-08-20T04:18:46;19.10;;;9.35;;
63801;SDS011;49949;43.060;25.624;2023-08-20T04:21:11;17.83;;;7.65;;
63801;SDS011;49949;43.060;25.624;2023-08-20T04:23:37;19.88;;;8.40;;
63801;SDS011;49949;43.060;25.624;2023-08-20T04:26:03;9.73;;;7.20;;
63801;SDS011;49949;43.060;25.624;2023-08-20T04:28:28;11.55;;;7.03;;
63801;SDS011;49949;43.060;25.624;2023-08-20T04:30:54;10.32;;;7.32;;
63801;SDS011;49949;43.060;25.624;2023-08-20T04:33:21;11.52;;;7.22;;
63801;SDS011;49949;43.060;25.624;2023-08-20T04:35:48;16.85;;;7.63;;
63801;SDS011;49949;43.060;25.624;2023-08-20T04:38:15;30.15;;;9.35;;
63801;SDS011;49949;43.060;25.624;2023-08-20T04:40:41;28.15;;;9.50;;
63801;SDS011;49949;43.060;25.624;2023-08-20T04:43:07;55.58;;;12.13;;
63801;SDS011;49949;43.060;25.624;2023-08-20T04:45:32;42.88;;;11.15;;
63801;SDS011;49949;43.060;25.624;2023-08-20T04:47:59;25.42;;;8.90;;
63801;SDS011;49949;43.060;25.624;2023-08-20T04:50:25;27.00;;;10.23;;
63801;SDS011;49949;43.060;25.624;2023-08-20T04:52:50;21.95;;;9.90;;
63801;SDS011;49949;43.060;25.624;2023-08-20T04:55:16;21.13;;;9.35;;
63801;SDS011;49949;43.060;25.624;2023-08-20T04:57:42;62.15;;;13.45;;
63801;SDS011;49949;43.060;25.624;2023-08-20T05:00:08;29.80;;;11.73;;
63801;SDS011;49949;43.060;25.624;2023-08-20T05:02:34;32.30;;;10.48;;
63801;SDS011;49949;43.060;25.624;2023-08-20T05:05:01;38.33;;;11.40;;
63801;SDS011;49949;43.060;25.624;2023-08-20T05:07:30;26.05;;;9.25;;
63801;SDS011;49949;43.060;25.624;2023-08-20T05:09:55;30.35;;;10.05;;
63801;SDS011;49949;43.060;25.624;2023-08-20T05:12:21;36.33;;;11.13;;
63801;SDS011;49949;43.060;25.624;2023-08-20T05:14:47;29.33;;;9.70;;
63801;SDS011;49949;43.060;25.624;2023-08-20T05:17:12;27.90;;;10.02;;
63801;SDS011;49949;43.060;25.624;2023-08-20T05:19:38;30.27;;;10.95;;
63801;SDS011;49949;43.060;25.624;2023-08-20T05:22:03;29.60;;;10.95;;
63801;SDS011;49949;43.060;25.624;2023-08-20T05:24:29;27.50;;;11.18;;
63801;SDS011;49949;43.060;25.624;2023-08-20T05:27:08;61.33;;;19.35;;
63801;SDS011;49949;43.060;25.624;2023-08-20T05:29:35;54.95;;;15.27;;
63801;SDS011;49949;43.060;25.624;2023-08-20T05:32:01;43.42;;;15.23;;
63801;SDS011;49949;43.060;25.624;2023-08-20T05:34:27;78.82;;;15.32;;
63801;SDS011;49949;43.060;25.624;2023-08-20T05:36:53;84.28;;;15.85;;
63801;SDS011;49949;43.060;25.624;2023-08-20T05:39:19;67.57;;;17.52;;
63801;SDS011;49949;43.060;25.624;2023-08-20T05:41:44;87.78;;;22.83;;
63801;SDS011;49949;43.060;25.624;2023-08-20T05:44:10;101.22;;;26.83;;
63801;SDS011;49949;43.060;25.624;2023-08-20T05:46:36;122.97;;;43.90;;
63801;SDS011;49949;43.060;25.624;2023-08-20T05:49:02;112.47;;;40.83;;
63801;SDS011;49949;43.060;25.624;2023-08-20T05:51:27;73.90;;;26.02;;
63801;SDS011;49949;43.060;25.624;2023-08-20T05:53:53;79.45;;;29.55;;
63801;SDS011;49949;43.060;25.624;2023-08-20T05:56:19;71.70;;;27.70;;
63801;SDS011;49949;43.060;25.624;2023-08-20T05:58:44;81.88;;;31.88;;
63801;SDS011;49949;43.060;25.624;2023-08-20T06:01:11;87.15;;;28.70;;
63801;SDS011;49949;43.060;25.624;2023-08-20T06:03:36;67.18;;;26.05;;
63801;SDS011;49949;43.060;25.624;2023-08-20T06:06:02;48.15;;;17.42;;
63801;SDS011;49949;43.060;25.624;2023-08-20T06:08:28;47.10;;;16.42;;
63801;SDS011;49949;43.060;25.624;2023-08-20T06:10:54;35.67;;;14.95;;
63801;SDS011;49949;43.060;25.624;2023-08-20T06:13:19;37.47;;;15.52;;
63801;SDS011;49949;43.060;25.624;2023-08-20T06:15:45;29.10;;;13.82;;
63801;SDS011;49949;43.060;25.624;2023-08-20T06:18:11;27.95;;;11.68;;
63801;SDS011;49949;43.060;25.624;2023-08-20T06:20:36;27.35;;;10.77;;
63801;SDS011;49949;43.060;25.624;2023-08-20T06:23:02;24.65;;;10.48;;
63801;SDS011;49949;43.060;25.624;2023-08-20T06:25:28;27.02;;;11.05;;
63801;SDS011;49949;43.060;25.624;2023-08-20T06:27:54;35.92;;;14.32;;
63801;SDS011;49949;43.060;25.624;2023-08-20T06:30:19;54.15;;;19.05;;
63801;SDS011;49949;43.060;25.624;2023-08-20T06:32:45;59.67;;;22.75;;
63801;SDS011;49949;43.060;25.624;2023-08-20T06:35:11;71.18;;;25.38;;
63801;SDS011;49949;43.060;25.624;2023-08-20T06:37:38;53.78;;;24.48;;
63801;SDS011;49949;43.060;25.624;2023-08-20T06:40:04;52.42;;;21.52;;
63801;SDS011;49949;43.060;25.624;2023-08-20T06:42:30;67.40;;;28.05;;
63801;SDS011;49949;43.060;25.624;2023-08-20T06:44:56;82.95;;;30.50;;
63801;SDS011;49949;43.060;25.624;2023-08-20T06:47:22;71.32;;;31.77;;
63801;SDS011;49949;43.060;25.624;2023-08-20T06:49:47;80.38;;;34.22;;
63801;SDS011;49949;43.060;25.624;2023-08-20T06:52:14;67.00;;;32.97;;
63801;SDS011;49949;43.060;25.624;2023-08-20T06:54:40;64.32;;;33.17;;
63801;SDS011;49949;43.060;25.624;2023-08-20T06:57:05;82.45;;;39.05;;
63801;SDS011;49949;43.060;25.624;2023-08-20T06:59:31;92.00;;;40.45;;
63801;SDS011;49949;43.060;25.624;2023-08-20T07:01:57;69.47;;;34.90;;
63801;SDS011;49949;43.060;25.624;2023-08-20T07:04:22;66.45;;;32.60;;
63801;SDS011;49949;43.060;25.624;2023-08-20T07:06:48;69.95;;;38.47;;
63801;SDS011;49949;43.060;25.624;2023-08-20T07:09:15;62.45;;;31.73;;
63801;SDS011;49949;43.060;25.624;2023-08-20T07:11:41;37.35;;;19.17;;
63801;SDS011;49949;43.060;25.624;2023-08-20T07:14:07;40.15;;;20.17;;
63801;SDS011;49949;43.060;25.624;2023-08-20T07:16:32;31.17;;;15.65;;
63801;SDS011;49949;43.060;25.624;2023-08-20T07:18:58;34.88;;;13.85;;
63801;SDS011;49949;43.060;25.624;2023-08-20T07:21:24;24.42;;;13.93;;
63801;SDS011;49949;43.060;25.624;2023-08-20T07:23:49;31.25;;;14.10;;
63801;SDS011;49949;43.060;25.624;2023-08-20T07:26:15;26.83;;;12.35;;
63801;SDS011;49949;43.060;25.624;2023-08-20T07:28:41;32.38;;;13.57;;
63801;SDS011;49949;43.060;25.624;2023-08-20T07:31:25;24.08;;;12.90;;
63801;SDS011;49949;43.060;25.624;2023-08-20T07:33:52;22.63;;;13.50;;
63801;SDS011;49949;43.060;25.624;2023-08-20T07:36:20;21.17;;;12.07;;
63801;SDS011;49949;43.060;25.624;2023-08-20T07:38:47;20.40;;;9.43;;
63801;SDS011;49949;43.060;25.624;2023-08-20T07:41:13;14.88;;;8.57;;
63801;SDS011;49949;43.060;25.624;2023-08-20T07:43:38;20.92;;;8.85;;
63801;SDS011;49949;43.060;25.624;2023-08-20T07:46:05;20.15;;;9.65;;
63801;SDS011;49949;43.060;25.624;2023-08-20T07:48:32;17.27;;;9.23;;
63801;SDS011;49949;43.060;25.624;2023-08-20T07:50:57;12.98;;;8.77;;
63801;SDS011;49949;43.060;25.624;2023-08-20T07:53:23;18.65;;;7.70;;
63801;SDS011;49949;43.060;25.624;2023-08-20T07:55:49;15.50;;;7.07;;
63801;SDS011;49949;43.060;25.624;2023-08-20T07:58:14;14.77;;;6.50;;
63801;SDS011;49949;43.060;25.624;2023-08-20T08:00:40;16.63;;;7.15;;
63801;SDS011;49949;43.060;25.624;2023-08-20T08:03:06;10.35;;;6.03;;
63801;SDS011;49949;43.060;25.624;2023-08-20T08:05:32;9.35;;;6.57;;
63801;SDS011;49949;43.060;25.624;2023-08-20T08:07:57;12.13;;;5.95;;
63801;SDS011;49949;43.060;25.624;2023-08-20T08:10:23;11.48;;;6.25;;
63801;SDS011;49949;43.060;25.624;2023-08-20T08:12:49;13.10;;;5.85;;
63801;SDS011;49949;43.060;25.624;2023-08-20T08:15:14;8.50;;;6.25;;
63801;SDS011;49949;43.060;25.624;2023-08-20T08:17:40;9.55;;;5.50;;
63801;SDS011;49949;43.060;25.624;2023-08-20T08:20:06;12.27;;;5.55;;
63801;SDS011;49949;43.060;25.624;2023-08-20T08:22:32;8.05;;;4.80;;
63801;SDS011;49949;43.060;25.624;2023-08-20T08:24:58;10.38;;;5.55;;
63801;SDS011;49949;43.060;25.624;2023-08-20T08:27:24;11.10;;;5.53;;
63801;SDS011;49949;43.060;25.624;2023-08-20T08:29:50;9.65;;;4.95;;
63801;SDS011;49949;43.060;25.624;2023-08-20T08:32:16;5.30;;;3.80;;
63801;SDS011;49949;43.060;25.624;2023-08-20T08:34:42;7.90;;;4.82;;
63801;SDS011;49949;43.060;25.624;2023-08-20T08:37:07;8.00;;;4.03;;
63801;SDS011;49949;43.060;25.624;2023-08-20T08:39:33;9.23;;;4.07;;
63801;SDS011;49949;43.060;25.624;2023-08-20T08:42:00;8.10;;;3.63;;
63801;SDS011;49949;43.060;25.624;2023-08-20T08:44:33;8.15;;;3.65;;
63801;SDS011;49949;43.060;25.624;2023-08-20T08:47:01;7.38;;;3.67;;
63801;SDS011;49949;43.060;25.624;2023-08-20T08:49:28;5.78;;;3.80;;
63801;SDS011;49949;43.060;25.624;2023-08-20T08:51:59;4.75;;;3.50;;
63801;SDS011;49949;43.060;25.624;2023-08-20T08:54:26;5.93;;;4.07;;
63801;SDS011;49949;43.060;25.624;2023-08-20T08:56:52;6.22;;;3.50;;
63801;SDS011;49949;43.060;25.624;2023-08-20T08:59:18;9.20;;;3.17;;
63801;SDS011;49949;43.060;25.624;2023-08-20T09:01:44;6.68;;;3.60;;
63801;SDS011;49949;43.060;25.624;2023-08-20T09:04:10;5.75;;;3.33;;
63801;SDS011;49949;43.060;25.624;2023-08-20T09:06:45;4.72;;;3.67;;
63801;SDS011;49949;43.060;25.624;2023-08-20T09:09:12;8.60;;;3.78;;
63801;SDS011;49949;43.060;25.624;2023-08-20T09:11:38;6.57;;;3.42;;
63801;SDS011;49949;43.060;25.624;2023-08-20T09:14:03;5.90;;;3.97;;
63801;SDS011;49949;43.060;25.624;2023-08-20T09:16:30;3.70;;;3.40;;
63801;SDS011;49949;43.060;25.624;2023-08-20T09:18:57;5.88;;;3.42;;
63801;SDS011;49949;43.060;25.624;2023-08-20T09:21:28;7.00;;;3.40;;
63801;SDS011;49949;43.060;25.624;2023-08-20T09:23:54;7.13;;;3.30;;
63801;SDS011;49949;43.060;25.624;2023-08-20T09:26:20;6.05;;;3.08;;
63801;SDS011;49949;43.060;25.624;2023-08-20T09:28:46;4.05;;;3.65;;
63801;SDS011;49949;43.060;25.624;2023-08-20T09:31:13;6.63;;;3.45;;
63801;SDS011;49949;43.060;25.624;2023-08-20T09:33:49;4.35;;;2.92;;
63801;SDS011;49949;43.060;25.624;2023-08-20T09:36:15;4.28;;;3.30;;
63801;SDS011;49949;43.060;25.624;2023-08-20T09:38:41;6.50;;;3.60;;
63801;SDS011;49949;43.060;25.624;2023-08-20T09:41:07;5.13;;;3.33;;
63801;SDS011;49949;43.060;25.624;2023-08-20T09:43:35;3.67;;;3.20;;
63801;SDS011;49949;43.060;25.624;2023-08-20T09:46:04;4.85;;;3.13;;
63801;SDS011;49949;43.060;25.624;2023-08-20T09:48:34;8.85;;;3.13;;
63801;SDS011;49949;43.060;25.624;2023-08-20T09:51:04;4.50;;;3.13;;
63801;SDS011;49949;43.060;25.624;2023-08-20T09:53:35;6.53;;;3.30;;
63801;SDS011;49949;43.060;25.624;2023-08-20T09:56:15;20.10;;;4.03;;
63801;SDS011;49949;43.060;25.624;2023-08-20T09:59:02;4.55;;;3.28;;
63801;SDS011;49949;43.060;25.624;2023-08-20T10:01:29;4.53;;;2.80;;
63801;SDS011;49949;43.060;25.624;2023-08-20T10:03:55;5.80;;;2.90;;
63801;SDS011;49949;43.060;25.624;2023-08-20T10:06:22;5.22;;;3.33;;
63801;SDS011;49949;43.060;25.624;2023-08-20T10:08:50;15.80;;;3.35;;
63801;SDS011;49949;43.060;25.624;2023-08-20T10:11:16;7.13;;;3.45;;
63801;SDS011;49949;43.060;25.624;2023-08-20T10:13:42;6.78;;;3.10;;
63801;SDS011;49949;43.060;25.624;2023-08-20T10:16:11;6.72;;;3.25;;
63801;SDS011;49949;43.060;25.624;2023-08-20T10:18:38;6.80;;;3.55;;
63801;SDS011;49949;43.060;25.624;2023-08-20T10:21:04;3.45;;;3.13;;
63801;SDS011;49949;43.060;25.624;2023-08-20T10:23:34;5.25;;;3.70;;
63801;SDS011;49949;43.060;25.624;2023-08-20T10:26:08;5.65;;;3.40;;
63801;SDS011;49949;43.060;25.624;2023-08-20T10:28:35;4.88;;;3.05;;
63801;SDS011;49949;43.060;25.624;2023-08-20T10:31:05;8.05;;;3.63;;
63801;SDS011;49949;43.060;25.624;2023-08-20T10:33:35;5.68;;;3.60;;
63801;SDS011;49949;43.060;25.624;2023-08-20T10:36:09;8.68;;;3.75;;
63801;SDS011;49949;43.060;25.624;2023-08-20T10:38:38;12.07;;;3.47;;
63801;SDS011;49949;43.060;25.624;2023-08-20T10:41:08;9.05;;;4.00;;
63801;SDS011;49949;43.060;25.624;2023-08-20T10:43:37;8.85;;;3.90;;
63801;SDS011;49949;43.060;25.624;2023-08-20T10:46:05;6.70;;;3.60;;
63801;SDS011;49949;43.060;25.624;2023-08-20T10:48:40;7.75;;;3.63;;
63801;SDS011;49949;43.060;25.624;2023-08-20T10:51:15;5.25;;;3.33;;
63801;SDS011;49949;43.060;25.624;2023-08-20T10:56:47;6.50;;;3.60;;
63801;SDS011;49949;43.060;25.624;2023-08-20T10:59:14;6.63;;;3.70;;
63801;SDS011;49949;43.060;25.624;2023-08-20T11:01:56;3.92;;;3.40;;
63801;SDS011;49949;43.060;25.624;2023-08-20T11:04:24;6.50;;;3.28;;
63801;SDS011;49949;43.060;25.624;2023-08-20T11:06:53;14.48;;;3.72;;
63801;SDS011;49949;43.060;25.624;2023-08-20T11:09:23;4.80;;;3.33;;
63801;SDS011;49949;43.060;25.624;2023-08-20T11:11:50;9.20;;;3.50;;
63801;SDS011;49949;43.060;25.624;2023-08-20T11:14:17;6.72;;;3.60;;
63801;SDS011;49949;43.060;25.624;2023-08-20T11:16:45;4.75;;;3.28;;
63801;SDS011;49949;43.060;25.624;2023-08-20T11:19:11;3.70;;;3.22;;
63801;SDS011;49949;43.060;25.624;2023-08-20T11:21:38;6.38;;;3.03;;
63801;SDS011;49949;43.060;25.624;2023-08-20T11:24:06;4.13;;;3.08;;
63801;SDS011;49949;43.060;25.624;2023-08-20T11:26:32;6.40;;;3.42;;
63801;SDS011;49949;43.060;25.624;2023-08-20T11:28:59;7.68;;;3.58;;
63801;SDS011;49949;43.060;25.624;2023-08-20T11:31:25;6.05;;;3.28;;
63801;SDS011;49949;43.060;25.624;2023-08-20T11:33:51;3.90;;;3.05;;
63801;SDS011;49949;43.060;25.624;2023-08-20T11:36:17;6.05;;;3.60;;
63801;SDS011;49949;43.060;25.624;2023-08-20T11:38:54;4.15;;;3.40;;
63801;SDS011;49949;43.060;25.624;2023-08-20T11:41:20;3.92;;;3.38;;
63801;SDS011;49949;43.060;25.624;2023-08-20T11:43:47;6.15;;;3.67;;
63801;SDS011;49949;43.060;25.624;2023-08-20T11:46:14;8.85;;;3.83;;
63801;SDS011;49949;43.060;25.624;2023-08-20T11:54:14;3.70;;;3.28;;
63801;SDS011;49949;43.060;25.624;2023-08-20T11:56:45;5.27;;;3.60;;
63801;SDS011;49949;43.060;25.624;2023-08-20T11:59:12;9.13;;;3.67;;
63801;SDS011;49949;43.060;25.624;2023-08-20T12:01:39;5.38;;;3.40;;
63801;SDS011;49949;43.060;25.624;2023-08-20T12:04:06;4.72;;;3.15;;
63801;SDS011;49949;43.060;25.624;2023-08-20T12:06:33;6.82;;;3.78;;
63801;SDS011;49949;43.060;25.624;2023-08-20T12:09:21;13.23;;;3.38;;
63801;SDS011;49949;43.060;25.624;2023-08-20T12:11:48;9.25;;;3.22;;
63801;SDS011;49949;43.060;25.624;2023-08-20T12:14:15;3.88;;;3.55;;
63801;SDS011;49949;43.060;25.624;2023-08-20T12:16:42;9.70;;;3.45;;
63801;SDS011;49949;43.060;25.624;2023-08-20T12:19:08;9.40;;;3.50;;
63801;SDS011;49949;43.060;25.624;2023-08-20T12:21:34;5.68;;;3.40;;
63801;SDS011;49949;43.060;25.624;2023-08-20T12:24:00;7.18;;;3.30;;
63801;SDS011;49949;43.060;25.624;2023-08-20T12:26:25;5.18;;;3.80;;
63801;SDS011;49949;43.060;25.624;2023-08-20T12:28:51;4.93;;;3.40;;
63801;SDS011;49949;43.060;25.624;2023-08-20T12:31:17;6.90;;;3.22;;
63801;SDS011;49949;43.060;25.624;2023-08-20T12:33:42;9.15;;;3.00;;
63801;SDS011;49949;43.060;25.624;2023-08-20T12:36:08;13.65;;;3.78;;
63801;SDS011;49949;43.060;25.624;2023-08-20T12:38:34;8.88;;;3.75;;
63801;SDS011;49949;43.060;25.624;2023-08-20T12:41:00;12.00;;;3.53;;
63801;SDS011;49949;43.060;25.624;2023-08-20T12:43:29;5.72;;;3.35;;
63801;SDS011;49949;43.060;25.624;2023-08-20T12:45:54;6.70;;;3.58;;
63801;SDS011;49949;43.060;25.624;2023-08-20T12:48:20;3.20;;;2.83;;
63801;SDS011;49949;43.060;25.624;2023-08-20T12:50:46;6.55;;;3.50;;
63801;SDS011;49949;43.060;25.624;2023-08-20T12:53:11;5.43;;;3.20;;
63801;SDS011;49949;43.060;25.624;2023-08-20T12:55:38;6.07;;;2.97;;
63801;SDS011;49949;43.060;25.624;2023-08-20T12:58:03;6.28;;;3.53;;
63801;SDS011;49949;43.060;25.624;2023-08-20T13:00:29;4.80;;;3.63;;
63801;SDS011;49949;43.060;25.624;2023-08-20T13:02:55;15.00;;;4.30;;
63801;SDS011;49949;43.060;25.624;2023-08-20T13:05:25;5.13;;;3.40;;
63801;SDS011;49949;43.060;25.624;2023-08-20T13:07:51;7.65;;;3.42;;
63801;SDS011;49949;43.060;25.624;2023-08-20T13:10:18;5.80;;;3.25;;
63801;SDS011;49949;43.060;25.624;2023-08-20T13:12:48;33.28;;;4.10;;
63801;SDS011;49949;43.060;25.624;2023-08-20T13:15:16;6.38;;;3.75;;
63801;SDS011;49949;43.060;25.624;2023-08-20T13:17:43;6.97;;;3.55;;
63801;SDS011;49949;43.060;25.624;2023-08-20T13:20:10;39.78;;;4.20;;
63801;SDS011;49949;43.060;25.624;2023-08-20T13:22:36;7.25;;;2.97;;
63801;SDS011;49949;43.060;25.624;2023-08-20T13:25:02;5.88;;;3.33;;
63801;SDS011;49949;43.060;25.624;2023-08-20T13:27:29;3.25;;;2.95;;
63801;SDS011;49949;43.060;25.624;2023-08-20T13:29:55;11.82;;;3.13;;
63801;SDS011;49949;43.060;25.624;2023-08-20T13:32:21;9.30;;;3.03;;
63801;SDS011;49949;43.060;25.624;2023-08-20T13:34:46;7.82;;;2.83;;
63801;SDS011;49949;43.060;25.624;2023-08-20T13:37:12;5.20;;;3.20;;
63801;SDS011;49949;43.060;25.624;2023-08-20T13:39:38;5.32;;;2.97;;
63801;SDS011;49949;43.060;25.624;2023-08-20T13:42:03;8.93;;;3.58;;
63801;SDS011;49949;43.060;25.624;2023-08-20T13:44:29;4.55;;;2.88;;
63801;SDS011;49949;43.060;25.624;2023-08-20T13:46:55;9.68;;;3.17;;
63801;SDS011;49949;43.060;25.624;2023-08-20T13:49:20;5.60;;;3.13;;
63801;SDS011;49949;43.060;25.624;2023-08-20T13:51:46;7.45;;;2.88;;
63801;SDS011;49949;43.060;25.624;2023-08-20T13:54:12;7.85;;;3.22;;
63801;SDS011;49949;43.060;25.624;2023-08-20T13:56:37;13.00;;;3.45;;
63801;SDS011;49949;43.060;25.624;2023-08-20T13:59:03;9.55;;;3.13;;
63801;SDS011;49949;43.060;25.624;2023-08-20T14:01:30;5.70;;;3.00;;
63801;SDS011;49949;43.060;25.624;2023-08-20T14:03:55;5.97;;;2.72;;
63801;SDS011;49949;43.060;25.624;2023-08-20T14:06:21;6.45;;;2.97;;
63801;SDS011;49949;43.060;25.624;2023-08-20T14:08:47;3.65;;;2.90;;
63801;SDS011;49949;43.060;25.624;2023-08-20T14:11:13;9.00;;;3.30;;
63801;SDS011;49949;43.060;25.624;2023-08-20T14:13:39;2.72;;;2.53;;
63801;SDS011;49949;43.060;25.624;2023-08-20T14:16:07;11.63;;;3.00;;
63801;SDS011;49949;43.060;25.624;2023-08-20T14:18:33;5.20;;;3.25;;
63801;SDS011;49949;43.060;25.624;2023-08-20T14:20:59;7.22;;;3.00;;
63801;SDS011;49949;43.060;25.624;2023-08-20T14:23:24;3.72;;;3.05;;
63801;SDS011;49949;43.060;25.624;2023-08-20T14:25:50;4.82;;;2.72;;
63801;SDS011;49949;43.060;25.624;2023-08-20T14:28:16;5.85;;;2.80;;
63801;SDS011;49949;43.060;25.624;2023-08-20T14:30:41;4.00;;;3.20;;
63801;SDS011;49949;43.060;25.624;2023-08-20T14:33:07;5.38;;;2.90;;
63801;SDS011;49949;43.060;25.624;2023-08-20T14:35:33;4.38;;;2.65;;
63801;SDS011;49949;43.060;25.624;2023-08-20T14:37:59;6.95;;;3.70;;